createdAt,value
2022-11-30T00:04:21.324Z,42.70
2022-11-30T00:12:29.410Z,35.30
2022-11-30T00:20:34.960Z,43.63
2022-11-30T00:28:44.373Z,37.63
2022-11-30T00:36:49.705Z,38.70
2022-11-30T00:44:57.888Z,47.03
2022-11-30T00:53:03.380Z,43.72
2022-11-30T01:01:12.126Z,52.55
2022-11-30T01:09:26.988Z,44.53
2022-11-30T01:17:34.891Z,45.38
2022-11-30T01:25:40.201Z,47.63
2022-11-30T01:33:51.997Z,50.58
2022-11-30T01:41:57.863Z,50.33
2022-11-30T01:50:12.622Z,47.40
2022-11-30T01:58:21.863Z,60.58
2022-11-30T02:06:29.827Z,58.65
2022-11-30T02:14:40.396Z,56.42
2022-11-30T02:23:01.834Z,59.22
2022-11-30T02:31:14.659Z,54.72
2022-11-30T02:39:23.000Z,54.70
2022-11-30T02:47:37.981Z,56.58
2022-11-30T02:55:43.276Z,55.83
2022-11-30T03:03:51.468Z,50.65
2022-11-30T03:11:57.020Z,48.83
2022-11-30T03:20:05.449Z,48.45
2022-11-30T03:28:10.726Z,50.85
2022-11-30T03:36:18.684Z,52.95
2022-11-30T03:44:24.063Z,53.42
2022-11-30T03:52:32.072Z,52.72
2022-11-30T04:00:37.830Z,50.17
2022-11-30T04:08:46.390Z,55.15
2022-11-30T04:16:52.457Z,55.95
2022-11-30T04:25:00.482Z,44.95
2022-11-30T04:33:06.246Z,47.10
2022-11-30T04:41:16.643Z,46.45
2022-11-30T04:49:22.411Z,46.13
2022-11-30T04:57:30.689Z,48.22
2022-11-30T05:05:36.020Z,50.95
2022-11-30T05:13:43.913Z,59.60
2022-11-30T05:21:49.262Z,63.10
2022-11-30T05:29:57.088Z,56.35
2022-11-30T05:38:02.466Z,59.15
2022-11-30T05:46:11.919Z,67.43
2022-11-30T05:54:19.083Z,72.57
2022-11-30T06:02:28.502Z,60.08
2022-11-30T06:10:34.061Z,59.63
2022-11-30T06:18:42.458Z,49.17
2022-11-30T06:26:47.734Z,49.95
2022-11-30T06:34:55.647Z,55.85
2022-11-30T06:43:01.001Z,52.95
2022-11-30T06:51:12.366Z,50.95
2022-11-30T06:59:17.748Z,49.95
2022-11-30T07:07:25.667Z,46.13
2022-11-30T07:15:31.064Z,49.50
2022-11-30T07:23:56.185Z,47.05
2022-11-30T07:32:02.192Z,53.60
2022-11-30T07:40:11.835Z,50.70
2022-11-30T07:48:17.182Z,46.17
2022-11-30T07:56:25.779Z,52.08
2022-11-30T08:04:31.074Z,41.72
2022-11-30T08:12:39.031Z,40.00
2022-11-30T08:20:49.646Z,37.45
2022-11-30T08:28:59.073Z,32.40
2022-11-30T08:37:05.068Z,31.23
2022-11-30T08:45:16.594Z,29.63
2022-11-30T08:53:22.899Z,36.05
2022-11-30T09:01:32.943Z,35.03
2022-11-30T09:09:38.948Z,30.33
2022-11-30T09:17:46.862Z,29.13
2022-11-30T09:25:58.503Z,35.80
2022-11-30T09:34:07.060Z,34.17
2022-11-30T09:42:31.030Z,35.65
2022-11-30T09:50:45.633Z,37.00
2022-11-30T09:58:56.165Z,28.70
2022-11-30T10:07:31.182Z,35.33
2022-11-30T10:15:51.821Z,38.60
2022-11-30T10:24:15.654Z,35.30
2022-11-30T10:40:38.539Z,13.00
2022-11-30T10:48:49.381Z,9.05
2022-11-30T10:56:57.413Z,9.52
2022-11-30T11:05:13.464Z,7.45
2022-11-30T11:13:24.406Z,9.43
2022-11-30T11:21:30.057Z,10.32
2022-11-30T11:29:40.198Z,6.22
2022-11-30T11:37:54.677Z,8.18
2022-11-30T11:46:12.746Z,5.65
2022-11-30T11:54:25.636Z,6.05
2022-11-30T12:02:41.774Z,6.03
2022-11-30T12:10:53.692Z,8.70
2022-11-30T12:19:08.102Z,8.65
2022-11-30T12:27:24.581Z,6.65
2022-11-30T12:35:42.638Z,6.80
2022-11-30T12:43:55.442Z,7.45
2022-11-30T12:52:11.310Z,7.70
2022-11-30T13:00:22.884Z,7.28
2022-11-30T13:08:37.943Z,5.93
2022-11-30T13:16:44.086Z,6.75
2022-11-30T13:24:59.358Z,9.02
2022-11-30T13:33:35.691Z,8.75
2022-11-30T13:41:45.185Z,8.48
2022-11-30T13:49:59.231Z,7.05
2022-11-30T13:58:18.621Z,6.55
2022-11-30T14:06:50.022Z,10.25
2022-11-30T14:14:58.176Z,9.77
2022-11-30T14:23:07.925Z,11.60
2022-11-30T14:31:23.623Z,10.68
2022-11-30T14:39:34.324Z,11.70
2022-11-30T14:47:46.646Z,10.05
2022-11-30T15:04:08.916Z,9.23
2022-11-30T15:12:21.299Z,11.00
2022-11-30T15:20:32.652Z,14.50
2022-11-30T15:28:42.595Z,24.80
2022-11-30T15:36:50.989Z,15.23
2022-11-30T15:44:56.571Z,11.55
2022-11-30T15:53:06.396Z,8.60
2022-11-30T16:01:16.785Z,9.27
2022-11-30T16:09:32.489Z,11.32
2022-11-30T16:17:38.606Z,15.23
2022-11-30T16:25:50.710Z,15.02
2022-11-30T16:33:56.016Z,12.07
2022-11-30T16:42:04.754Z,9.63
2022-11-30T16:50:12.122Z,11.43
2022-11-30T16:58:20.124Z,14.68
2022-11-30T17:06:26.985Z,16.08
2022-11-30T17:14:34.909Z,11.68
2022-11-30T17:22:40.493Z,14.40
2022-11-30T17:30:49.633Z,13.38
2022-11-30T17:39:02.257Z,9.55
2022-11-30T17:47:10.448Z,9.63
2022-11-30T17:55:15.832Z,6.15
2022-11-30T18:03:24.130Z,6.03
2022-11-30T18:11:30.358Z,5.25
2022-11-30T18:19:38.349Z,5.80
2022-11-30T18:27:44.605Z,4.72
2022-11-30T18:35:52.566Z,4.85
2022-11-30T18:43:57.865Z,6.32
2022-11-30T18:52:06.024Z,7.50
2022-11-30T19:00:12.929Z,8.77
2022-11-30T19:08:36.014Z,8.75
2022-11-30T19:16:42.658Z,8.68
2022-11-30T19:24:54.037Z,8.52
2022-11-30T19:32:59.376Z,11.18
2022-11-30T19:41:11.493Z,10.60
2022-11-30T19:49:16.756Z,9.77
2022-11-30T19:57:24.643Z,9.15
2022-11-30T20:05:34.098Z,7.90
2022-11-30T20:13:42.153Z,6.82
2022-11-30T20:21:48.435Z,8.05
2022-11-30T20:29:57.142Z,10.10
2022-11-30T20:38:02.467Z,8.80
2022-11-30T20:46:18.416Z,7.93
2022-11-30T20:54:23.890Z,9.52
2022-11-30T21:02:32.132Z,9.57
2022-11-30T21:10:41.262Z,8.00
2022-11-30T21:18:50.475Z,9.20
2022-11-30T21:26:56.384Z,11.00
2022-11-30T21:35:07.001Z,8.38
2022-11-30T21:43:12.725Z,8.73
2022-11-30T21:51:22.905Z,9.68
2022-11-30T21:59:35.128Z,11.07
2022-11-30T22:07:43.744Z,10.57
2022-11-30T22:15:49.532Z,9.70
2022-11-30T22:23:59.850Z,8.35
2022-11-30T22:32:05.309Z,11.13
2022-11-30T22:40:15.207Z,10.10
2022-11-30T22:48:20.601Z,9.30
2022-11-30T22:56:30.212Z,11.05
2022-11-30T23:04:35.997Z,18.42
2022-11-30T23:12:58.929Z,30.52
2022-11-30T23:29:17.753Z,26.27
2022-11-30T23:37:23.167Z,15.73
2022-11-30T23:45:31.290Z,9.10
2022-11-30T23:53:37.277Z,8.07
